Decoded Metar for LFLP (ANNECY in FRANCE) (IATA:NCY) | Meteo·Mobile Aviation Weather
aviador You're here:

LFLP Decoded Metar

ANNECY in FRANCE
Report Time2019-09-21 08:30:00
UTC Time2019-09-21 08:59:52
Flight Rules vfr VFR
WindVRB at 02 kt
Visibility9999 m
Phenomena:N/A
Clouds:N/A
Expected CloudBase > 2,800 ft AGL from Temp-Dew spread
CeilingNone
Temp17°C (ISA +5)
Dew Point10°C (64% RH)
AAT16.4°C
QNH1020 hPa
Density Alt2,044 ft
Elevation1,519 ft
Report Wrong Elevation
Raw Report
METAR LFLP 210830Z AUTO VRB02KT CAVOK 17/10 Q1020 NOSIG=

Extra information for LFLP:More info

Metar Taf Metar & Taf Last 4 Metars F.Rules Stats Wind Profile Meteogram Temp Stats Airport Information Weather charts Add Link Nearby VenuesMetar ALERT Operation Metar Decoded Social comments